sensor_id;sensor_type;location;lat;lon;timestamp;P1;durP1;ratioP1;P2;durP2;ratioP2
22614;SDS011;11474;50.790;0.298;2023-04-15T00:00:09;4.05;;;2.78;;
22614;SDS011;11474;50.790;0.298;2023-04-15T00:02:36;3.97;;;3.03;;
22614;SDS011;11474;50.790;0.298;2023-04-15T00:05:03;5.75;;;3.00;;
22614;SDS011;11474;50.790;0.298;2023-04-15T00:07:29;4.80;;;3.20;;
22614;SDS011;11474;50.790;0.298;2023-04-15T00:09:55;4.90;;;3.22;;
22614;SDS011;11474;50.790;0.298;2023-04-15T00:12:22;3.63;;;2.90;;
22614;SDS011;11474;50.790;0.298;2023-04-15T00:14:48;5.10;;;3.75;;
22614;SDS011;11474;50.790;0.298;2023-04-15T00:17:15;5.20;;;3.65;;
22614;SDS011;11474;50.790;0.298;2023-04-15T00:19:41;6.90;;;3.67;;
22614;SDS011;11474;50.790;0.298;2023-04-15T00:22:08;7.22;;;4.38;;
22614;SDS011;11474;50.790;0.298;2023-04-15T00:24:35;8.63;;;4.55;;
22614;SDS011;11474;50.790;0.298;2023-04-15T00:27:01;7.10;;;4.63;;
22614;SDS011;11474;50.790;0.298;2023-04-15T00:29:27;6.97;;;4.50;;
22614;SDS011;11474;50.790;0.298;2023-04-15T00:31:54;7.18;;;5.03;;
22614;SDS011;11474;50.790;0.298;2023-04-15T00:34:21;9.93;;;5.00;;
22614;SDS011;11474;50.790;0.298;2023-04-15T00:36:47;7.88;;;4.85;;
22614;SDS011;11474;50.790;0.298;2023-04-15T00:39:13;7.13;;;4.55;;
22614;SDS011;11474;50.790;0.298;2023-04-15T00:41:40;8.82;;;4.40;;
22614;SDS011;11474;50.790;0.298;2023-04-15T00:44:07;7.00;;;4.28;;
22614;SDS011;11474;50.790;0.298;2023-04-15T00:46:34;8.75;;;4.82;;
22614;SDS011;11474;50.790;0.298;2023-04-15T00:49:05;6.30;;;4.32;;
22614;SDS011;11474;50.790;0.298;2023-04-15T00:51:32;7.10;;;4.50;;
22614;SDS011;11474;50.790;0.298;2023-04-15T00:54:00;9.07;;;5.20;;
22614;SDS011;11474;50.790;0.298;2023-04-15T00:56:26;8.00;;;5.30;;
22614;SDS011;11474;50.790;0.298;2023-04-15T00:58:53;10.23;;;5.57;;
22614;SDS011;11474;50.790;0.298;2023-04-15T01:01:20;8.98;;;4.93;;
22614;SDS011;11474;50.790;0.298;2023-04-15T01:03:47;10.07;;;5.20;;
22614;SDS011;11474;50.790;0.298;2023-04-15T01:06:14;7.95;;;4.95;;
22614;SDS011;11474;50.790;0.298;2023-04-15T01:08:40;8.38;;;4.97;;
22614;SDS011;11474;50.790;0.298;2023-04-15T01:11:07;8.60;;;5.22;;
22614;SDS011;11474;50.790;0.298;2023-04-15T01:13:33;7.07;;;4.80;;
22614;SDS011;11474;50.790;0.298;2023-04-15T01:15:59;8.70;;;5.13;;
22614;SDS011;11474;50.790;0.298;2023-04-15T01:18:27;7.25;;;4.97;;
22614;SDS011;11474;50.790;0.298;2023-04-15T01:20:53;11.68;;;4.90;;
22614;SDS011;11474;50.790;0.298;2023-04-15T01:23:20;7.17;;;5.00;;
22614;SDS011;11474;50.790;0.298;2023-04-15T01:25:47;8.23;;;5.85;;
22614;SDS011;11474;50.790;0.298;2023-04-15T01:28:13;9.57;;;6.32;;
22614;SDS011;11474;50.790;0.298;2023-04-15T01:30:40;9.30;;;6.78;;
22614;SDS011;11474;50.790;0.298;2023-04-15T01:33:06;10.63;;;7.30;;
22614;SDS011;11474;50.790;0.298;2023-04-15T01:35:32;10.93;;;6.63;;
22614;SDS011;11474;50.790;0.298;2023-04-15T01:38:04;9.70;;;7.18;;
22614;SDS011;11474;50.790;0.298;2023-04-15T01:40:30;10.50;;;6.40;;
22614;SDS011;11474;50.790;0.298;2023-04-15T01:42:56;9.25;;;6.63;;
22614;SDS011;11474;50.790;0.298;2023-04-15T01:45:22;9.05;;;6.20;;
22614;SDS011;11474;50.790;0.298;2023-04-15T01:47:48;8.70;;;5.90;;
22614;SDS011;11474;50.790;0.298;2023-04-15T01:50:14;8.88;;;6.28;;
22614;SDS011;11474;50.790;0.298;2023-04-15T01:52:40;8.63;;;6.20;;
22614;SDS011;11474;50.790;0.298;2023-04-15T01:55:08;9.27;;;6.18;;
22614;SDS011;11474;50.790;0.298;2023-04-15T01:57:34;8.95;;;6.55;;
22614;SDS011;11474;50.790;0.298;2023-04-15T02:00:01;8.33;;;6.13;;
22614;SDS011;11474;50.790;0.298;2023-04-15T02:02:28;9.30;;;6.75;;
22614;SDS011;11474;50.790;0.298;2023-04-15T02:04:55;10.95;;;7.18;;
22614;SDS011;11474;50.790;0.298;2023-04-15T02:07:21;9.77;;;7.28;;
22614;SDS011;11474;50.790;0.298;2023-04-15T02:09:47;13.38;;;8.27;;
22614;SDS011;11474;50.790;0.298;2023-04-15T02:12:13;12.93;;;8.25;;
22614;SDS011;11474;50.790;0.298;2023-04-15T02:14:39;13.23;;;8.63;;
22614;SDS011;11474;50.790;0.298;2023-04-15T02:17:05;11.90;;;8.50;;
22614;SDS011;11474;50.790;0.298;2023-04-15T02:19:35;12.07;;;8.85;;
22614;SDS011;11474;50.790;0.298;2023-04-15T02:22:01;12.20;;;8.50;;
22614;SDS011;11474;50.790;0.298;2023-04-15T02:24:28;12.10;;;8.82;;
22614;SDS011;11474;50.790;0.298;2023-04-15T02:26:54;12.52;;;8.57;;
22614;SDS011;11474;50.790;0.298;2023-04-15T02:29:20;11.02;;;7.57;;
22614;SDS011;11474;50.790;0.298;2023-04-15T02:31:47;10.63;;;7.70;;
22614;SDS011;11474;50.790;0.298;2023-04-15T02:34:13;10.95;;;7.80;;
22614;SDS011;11474;50.790;0.298;2023-04-15T02:36:39;11.17;;;8.50;;
22614;SDS011;11474;50.790;0.298;2023-04-15T02:39:05;10.45;;;7.50;;
22614;SDS011;11474;50.790;0.298;2023-04-15T02:41:31;10.90;;;7.45;;
22614;SDS011;11474;50.790;0.298;2023-04-15T02:43:58;11.40;;;7.32;;
22614;SDS011;11474;50.790;0.298;2023-04-15T02:46:24;10.50;;;6.90;;
22614;SDS011;11474;50.790;0.298;2023-04-15T02:48:50;9.40;;;6.55;;
22614;SDS011;11474;50.790;0.298;2023-04-15T02:51:18;10.48;;;7.20;;
22614;SDS011;11474;50.790;0.298;2023-04-15T02:53:46;9.70;;;6.40;;
22614;SDS011;11474;50.790;0.298;2023-04-15T02:56:12;9.05;;;6.57;;
22614;SDS011;11474;50.790;0.298;2023-04-15T02:58:40;10.60;;;6.43;;
22614;SDS011;11474;50.790;0.298;2023-04-15T03:01:06;8.63;;;5.93;;
22614;SDS011;11474;50.790;0.298;2023-04-15T03:03:33;9.93;;;5.75;;
22614;SDS011;11474;50.790;0.298;2023-04-15T03:05:59;9.27;;;5.85;;
22614;SDS011;11474;50.790;0.298;2023-04-15T03:08:25;8.60;;;6.07;;
22614;SDS011;11474;50.790;0.298;2023-04-15T03:10:51;10.70;;;6.78;;
22614;SDS011;11474;50.790;0.298;2023-04-15T03:13:18;8.50;;;5.32;;
22614;SDS011;11474;50.790;0.298;2023-04-15T03:15:45;8.27;;;5.57;;
22614;SDS011;11474;50.790;0.298;2023-04-15T03:18:12;11.60;;;6.03;;
22614;SDS011;11474;50.790;0.298;2023-04-15T03:20:48;8.50;;;5.30;;
22614;SDS011;11474;50.790;0.298;2023-04-15T03:23:14;7.85;;;5.22;;
22614;SDS011;11474;50.790;0.298;2023-04-15T03:25:40;8.05;;;5.15;;
22614;SDS011;11474;50.790;0.298;2023-04-15T03:28:06;10.48;;;5.90;;
22614;SDS011;11474;50.790;0.298;2023-04-15T03:30:32;9.90;;;5.93;;
22614;SDS011;11474;50.790;0.298;2023-04-15T03:32:58;8.65;;;5.93;;
22614;SDS011;11474;50.790;0.298;2023-04-15T03:35:24;9.77;;;6.68;;
22614;SDS011;11474;50.790;0.298;2023-04-15T03:37:50;12.98;;;7.78;;
22614;SDS011;11474;50.790;0.298;2023-04-15T03:40:17;12.23;;;8.45;;
22614;SDS011;11474;50.790;0.298;2023-04-15T03:42:43;11.15;;;8.02;;
22614;SDS011;11474;50.790;0.298;2023-04-15T03:45:09;13.02;;;8.30;;
22614;SDS011;11474;50.790;0.298;2023-04-15T03:47:35;11.73;;;8.52;;
22614;SDS011;11474;50.790;0.298;2023-04-15T03:50:01;12.55;;;8.40;;
22614;SDS011;11474;50.790;0.298;2023-04-15T03:52:27;12.10;;;8.38;;
22614;SDS011;11474;50.790;0.298;2023-04-15T03:54:53;12.02;;;8.82;;
22614;SDS011;11474;50.790;0.298;2023-04-15T03:57:19;11.98;;;8.55;;
22614;SDS011;11474;50.790;0.298;2023-04-15T03:59:45;11.73;;;8.13;;
22614;SDS011;11474;50.790;0.298;2023-04-15T04:02:11;10.60;;;7.30;;
22614;SDS011;11474;50.790;0.298;2023-04-15T04:04:37;11.65;;;7.43;;
22614;SDS011;11474;50.790;0.298;2023-04-15T04:07:03;12.52;;;6.68;;
22614;SDS011;11474;50.790;0.298;2023-04-15T04:09:29;10.23;;;6.13;;
22614;SDS011;11474;50.790;0.298;2023-04-15T04:11:56;10.77;;;6.27;;
22614;SDS011;11474;50.790;0.298;2023-04-15T04:14:22;9.98;;;6.28;;
22614;SDS011;11474;50.790;0.298;2023-04-15T04:16:53;11.13;;;6.55;;
22614;SDS011;11474;50.790;0.298;2023-04-15T04:19:19;8.07;;;5.63;;
22614;SDS011;11474;50.790;0.298;2023-04-15T04:21:45;9.55;;;5.45;;
22614;SDS011;11474;50.790;0.298;2023-04-15T04:24:11;6.80;;;4.95;;
22614;SDS011;11474;50.790;0.298;2023-04-15T04:26:37;7.57;;;4.88;;
22614;SDS011;11474;50.790;0.298;2023-04-15T04:29:03;6.00;;;4.07;;
22614;SDS011;11474;50.790;0.298;2023-04-15T04:31:30;5.53;;;4.00;;
22614;SDS011;11474;50.790;0.298;2023-04-15T04:33:56;7.55;;;4.10;;
22614;SDS011;11474;50.790;0.298;2023-04-15T04:36:22;5.50;;;3.70;;
22614;SDS011;11474;50.790;0.298;2023-04-15T04:38:48;6.72;;;3.85;;
22614;SDS011;11474;50.790;0.298;2023-04-15T04:41:14;5.55;;;3.60;;
22614;SDS011;11474;50.790;0.298;2023-04-15T04:43:40;4.60;;;3.47;;
22614;SDS011;11474;50.790;0.298;2023-04-15T04:46:06;5.75;;;3.35;;
22614;SDS011;11474;50.790;0.298;2023-04-15T04:48:32;5.05;;;3.15;;
22614;SDS011;11474;50.790;0.298;2023-04-15T04:50:59;4.80;;;3.13;;
22614;SDS011;11474;50.790;0.298;2023-04-15T04:53:25;7.10;;;3.28;;
22614;SDS011;11474;50.790;0.298;2023-04-15T04:55:52;4.43;;;3.08;;
22614;SDS011;11474;50.790;0.298;2023-04-15T04:58:18;5.00;;;3.55;;
22614;SDS011;11474;50.790;0.298;2023-04-15T05:00:44;5.53;;;3.50;;
22614;SDS011;11474;50.790;0.298;2023-04-15T05:03:11;6.00;;;3.45;;
22614;SDS011;11474;50.790;0.298;2023-04-15T05:05:37;4.65;;;3.22;;
22614;SDS011;11474;50.790;0.298;2023-04-15T05:08:05;5.17;;;3.40;;
22614;SDS011;11474;50.790;0.298;2023-04-15T05:10:31;4.95;;;3.33;;
22614;SDS011;11474;50.790;0.298;2023-04-15T05:12:57;4.40;;;3.10;;
22614;SDS011;11474;50.790;0.298;2023-04-15T05:15:23;5.53;;;3.23;;
22614;SDS011;11474;50.790;0.298;2023-04-15T05:17:49;5.32;;;3.35;;
22614;SDS011;11474;50.790;0.298;2023-04-15T05:20:15;5.28;;;3.58;;
22614;SDS011;11474;50.790;0.298;2023-04-15T05:22:42;4.90;;;3.45;;
22614;SDS011;11474;50.790;0.298;2023-04-15T05:25:08;4.50;;;3.40;;
22614;SDS011;11474;50.790;0.298;2023-04-15T05:27:34;6.75;;;3.70;;
22614;SDS011;11474;50.790;0.298;2023-04-15T05:30:00;5.82;;;3.60;;
22614;SDS011;11474;50.790;0.298;2023-04-15T05:32:26;4.72;;;3.38;;
22614;SDS011;11474;50.790;0.298;2023-04-15T05:34:52;5.97;;;3.60;;
22614;SDS011;11474;50.790;0.298;2023-04-15T05:37:18;7.13;;;3.60;;
22614;SDS011;11474;50.790;0.298;2023-04-15T05:39:45;5.95;;;3.40;;
22614;SDS011;11474;50.790;0.298;2023-04-15T05:42:11;4.53;;;3.25;;
22614;SDS011;11474;50.790;0.298;2023-04-15T05:44:37;5.47;;;3.22;;
22614;SDS011;11474;50.790;0.298;2023-04-15T05:47:03;4.73;;;3.30;;
22614;SDS011;11474;50.790;0.298;2023-04-15T05:49:29;4.32;;;2.90;;
22614;SDS011;11474;50.790;0.298;2023-04-15T05:51:55;4.13;;;2.90;;
22614;SDS011;11474;50.790;0.298;2023-04-15T05:54:22;3.20;;;2.55;;
22614;SDS011;11474;50.790;0.298;2023-04-15T05:56:48;4.63;;;2.67;;
22614;SDS011;11474;50.790;0.298;2023-04-15T05:59:14;4.18;;;2.70;;
22614;SDS011;11474;50.790;0.298;2023-04-15T06:01:40;3.65;;;2.70;;
22614;SDS011;11474;50.790;0.298;2023-04-15T06:04:07;3.00;;;2.60;;
22614;SDS011;11474;50.790;0.298;2023-04-15T06:06:33;4.15;;;2.75;;
22614;SDS011;11474;50.790;0.298;2023-04-15T06:08:59;3.65;;;2.67;;
22614;SDS011;11474;50.790;0.298;2023-04-15T06:11:25;4.05;;;2.50;;
22614;SDS011;11474;50.790;0.298;2023-04-15T06:13:51;3.80;;;2.75;;
22614;SDS011;11474;50.790;0.298;2023-04-15T06:16:17;4.23;;;2.87;;
22614;SDS011;11474;50.790;0.298;2023-04-15T06:18:43;4.05;;;2.85;;
22614;SDS011;11474;50.790;0.298;2023-04-15T06:21:10;4.22;;;3.00;;
22614;SDS011;11474;50.790;0.298;2023-04-15T06:23:36;4.15;;;2.70;;
22614;SDS011;11474;50.790;0.298;2023-04-15T06:26:02;3.33;;;2.78;;
22614;SDS011;11474;50.790;0.298;2023-04-15T06:28:28;3.38;;;2.70;;
22614;SDS011;11474;50.790;0.298;2023-04-15T06:30:54;4.72;;;2.80;;
22614;SDS011;11474;50.790;0.298;2023-04-15T06:33:20;3.00;;;2.53;;
22614;SDS011;11474;50.790;0.298;2023-04-15T06:35:46;3.30;;;2.80;;
22614;SDS011;11474;50.790;0.298;2023-04-15T06:38:13;3.90;;;2.95;;
22614;SDS011;11474;50.790;0.298;2023-04-15T06:40:39;4.05;;;3.15;;
22614;SDS011;11474;50.790;0.298;2023-04-15T06:43:06;5.25;;;3.17;;
22614;SDS011;11474;50.790;0.298;2023-04-15T06:45:33;4.85;;;3.03;;
22614;SDS011;11474;50.790;0.298;2023-04-15T06:47:59;4.55;;;3.00;;
22614;SDS011;11474;50.790;0.298;2023-04-15T06:50:25;4.13;;;2.97;;
22614;SDS011;11474;50.790;0.298;2023-04-15T06:52:52;4.65;;;3.00;;
22614;SDS011;11474;50.790;0.298;2023-04-15T06:55:18;5.15;;;3.67;;
22614;SDS011;11474;50.790;0.298;2023-04-15T06:57:44;6.32;;;3.55;;
22614;SDS011;11474;50.790;0.298;2023-04-15T07:00:10;4.10;;;3.20;;
22614;SDS011;11474;50.790;0.298;2023-04-15T07:02:37;4.13;;;3.00;;
22614;SDS011;11474;50.790;0.298;2023-04-15T07:05:03;4.17;;;3.00;;
22614;SDS011;11474;50.790;0.298;2023-04-15T07:07:29;5.00;;;3.10;;
22614;SDS011;11474;50.790;0.298;2023-04-15T07:09:55;3.65;;;2.90;;
22614;SDS011;11474;50.790;0.298;2023-04-15T07:12:21;4.80;;;3.10;;
22614;SDS011;11474;50.790;0.298;2023-04-15T07:14:48;5.63;;;3.27;;
22614;SDS011;11474;50.790;0.298;2023-04-15T07:17:14;4.10;;;3.05;;
22614;SDS011;11474;50.790;0.298;2023-04-15T07:19:40;4.65;;;3.15;;
22614;SDS011;11474;50.790;0.298;2023-04-15T07:22:06;3.92;;;2.83;;
22614;SDS011;11474;50.790;0.298;2023-04-15T07:24:32;5.18;;;2.83;;
22614;SDS011;11474;50.790;0.298;2023-04-15T07:26:58;4.93;;;3.13;;
22614;SDS011;11474;50.790;0.298;2023-04-15T07:29:25;3.45;;;2.55;;
22614;SDS011;11474;50.790;0.298;2023-04-15T07:31:51;3.50;;;2.40;;
22614;SDS011;11474;50.790;0.298;2023-04-15T07:34:18;3.42;;;2.50;;
22614;SDS011;11474;50.790;0.298;2023-04-15T07:36:45;3.30;;;2.40;;
22614;SDS011;11474;50.790;0.298;2023-04-15T07:39:14;3.28;;;2.30;;
22614;SDS011;11474;50.790;0.298;2023-04-15T07:41:40;3.43;;;2.60;;
22614;SDS011;11474;50.790;0.298;2023-04-15T07:44:06;4.05;;;2.60;;
22614;SDS011;11474;50.790;0.298;2023-04-15T07:46:33;3.90;;;2.80;;
22614;SDS011;11474;50.790;0.298;2023-04-15T07:48:59;3.33;;;2.40;;
22614;SDS011;11474;50.790;0.298;2023-04-15T07:51:25;4.95;;;2.60;;
22614;SDS011;11474;50.790;0.298;2023-04-15T07:53:51;3.60;;;2.50;;
22614;SDS011;11474;50.790;0.298;2023-04-15T07:56:18;3.13;;;2.22;;
22614;SDS011;11474;50.790;0.298;2023-04-15T07:58:44;4.13;;;2.60;;
22614;SDS011;11474;50.790;0.298;2023-04-15T08:01:10;3.35;;;2.30;;
22614;SDS011;11474;50.790;0.298;2023-04-15T08:03:36;6.28;;;2.40;;
22614;SDS011;11474;50.790;0.298;2023-04-15T08:06:03;3.70;;;2.60;;
22614;SDS011;11474;50.790;0.298;2023-04-15T08:08:29;4.15;;;2.60;;
22614;SDS011;11474;50.790;0.298;2023-04-15T08:10:57;3.67;;;2.70;;
22614;SDS011;11474;50.790;0.298;2023-04-15T08:13:23;4.28;;;2.75;;
22614;SDS011;11474;50.790;0.298;2023-04-15T08:15:52;3.95;;;2.90;;
22614;SDS011;11474;50.790;0.298;2023-04-15T08:18:18;4.03;;;2.90;;
22614;SDS011;11474;50.790;0.298;2023-04-15T08:20:44;6.57;;;3.05;;
22614;SDS011;11474;50.790;0.298;2023-04-15T08:23:10;3.88;;;2.70;;
22614;SDS011;11474;50.790;0.298;2023-04-15T08:25:36;5.45;;;3.10;;
22614;SDS011;11474;50.790;0.298;2023-04-15T08:28:03;4.05;;;3.08;;
22614;SDS011;11474;50.790;0.298;2023-04-15T08:30:31;4.13;;;3.07;;
22614;SDS011;11474;50.790;0.298;2023-04-15T08:32:57;4.63;;;3.10;;
22614;SDS011;11474;50.790;0.298;2023-04-15T08:35:23;4.72;;;2.83;;
22614;SDS011;11474;50.790;0.298;2023-04-15T08:37:50;5.28;;;3.15;;
22614;SDS011;11474;50.790;0.298;2023-04-15T08:40:16;5.45;;;3.10;;
22614;SDS011;11474;50.790;0.298;2023-04-15T08:42:43;5.47;;;3.30;;
22614;SDS011;11474;50.790;0.298;2023-04-15T08:45:10;4.22;;;3.10;;
22614;SDS011;11474;50.790;0.298;2023-04-15T08:47:36;5.07;;;3.05;;
22614;SDS011;11474;50.790;0.298;2023-04-15T08:50:07;4.60;;;2.95;;
22614;SDS011;11474;50.790;0.298;2023-04-15T08:52:33;4.43;;;2.88;;
22614;SDS011;11474;50.790;0.298;2023-04-15T08:55:01;4.32;;;2.90;;
22614;SDS011;11474;50.790;0.298;2023-04-15T08:57:28;3.85;;;2.88;;
22614;SDS011;11474;50.790;0.298;2023-04-15T08:59:57;4.47;;;2.88;;
22614;SDS011;11474;50.790;0.298;2023-04-15T09:02:23;4.28;;;2.80;;
22614;SDS011;11474;50.790;0.298;2023-04-15T09:04:50;4.13;;;2.70;;
22614;SDS011;11474;50.790;0.298;2023-04-15T09:07:16;3.28;;;2.28;;
22614;SDS011;11474;50.790;0.298;2023-04-15T09:09:42;3.15;;;2.20;;
22614;SDS011;11474;50.790;0.298;2023-04-15T09:12:08;3.78;;;2.30;;
22614;SDS011;11474;50.790;0.298;2023-04-15T09:14:35;3.53;;;2.33;;
22614;SDS011;11474;50.790;0.298;2023-04-15T09:17:02;3.83;;;2.22;;
22614;SDS011;11474;50.790;0.298;2023-04-15T09:19:29;5.45;;;2.50;;
22614;SDS011;11474;50.790;0.298;2023-04-15T09:21:56;3.85;;;2.30;;
22614;SDS011;11474;50.790;0.298;2023-04-15T09:24:22;4.07;;;2.50;;
22614;SDS011;11474;50.790;0.298;2023-04-15T09:26:51;7.40;;;2.90;;
22614;SDS011;11474;50.790;0.298;2023-04-15T09:29:17;4.88;;;2.80;;
22614;SDS011;11474;50.790;0.298;2023-04-15T09:31:43;3.93;;;2.30;;
22614;SDS011;11474;50.790;0.298;2023-04-15T09:34:09;5.07;;;2.50;;
22614;SDS011;11474;50.790;0.298;2023-04-15T09:36:56;5.65;;;2.58;;
22614;SDS011;11474;50.790;0.298;2023-04-15T09:39:22;3.30;;;2.33;;
22614;SDS011;11474;50.790;0.298;2023-04-15T09:42:04;5.60;;;2.90;;
22614;SDS011;11474;50.790;0.298;2023-04-15T09:44:31;7.10;;;2.90;;
22614;SDS011;11474;50.790;0.298;2023-04-15T09:46:57;6.47;;;2.90;;
22614;SDS011;11474;50.790;0.298;2023-04-15T09:49:23;6.28;;;3.00;;
22614;SDS011;11474;50.790;0.298;2023-04-15T09:51:49;6.95;;;3.50;;
22614;SDS011;11474;50.790;0.298;2023-04-15T09:54:18;6.70;;;3.35;;
22614;SDS011;11474;50.790;0.298;2023-04-15T09:56:47;10.05;;;3.47;;
22614;SDS011;11474;50.790;0.298;2023-04-15T09:59:13;8.57;;;4.05;;
22614;SDS011;11474;50.790;0.298;2023-04-15T10:01:42;7.15;;;3.72;;
22614;SDS011;11474;50.790;0.298;2023-04-15T10:04:08;9.35;;;3.97;;
22614;SDS011;11474;50.790;0.298;2023-04-15T10:06:35;7.40;;;4.13;;
22614;SDS011;11474;50.790;0.298;2023-04-15T10:09:01;9.25;;;4.20;;
22614;SDS011;11474;50.790;0.298;2023-04-15T10:11:27;13.33;;;4.77;;
22614;SDS011;11474;50.790;0.298;2023-04-15T10:13:54;8.98;;;4.68;;
22614;SDS011;11474;50.790;0.298;2023-04-15T10:16:21;10.77;;;4.57;;
22614;SDS011;11474;50.790;0.298;2023-04-15T10:18:50;8.85;;;4.55;;
22614;SDS011;11474;50.790;0.298;2023-04-15T10:21:18;9.35;;;4.57;;
22614;SDS011;11474;50.790;0.298;2023-04-15T10:23:44;10.27;;;4.53;;
22614;SDS011;11474;50.790;0.298;2023-04-15T10:26:10;8.88;;;4.80;;
22614;SDS011;11474;50.790;0.298;2023-04-15T10:28:38;10.95;;;5.13;;
22614;SDS011;11474;50.790;0.298;2023-04-15T10:31:05;11.30;;;4.67;;
22614;SDS011;11474;50.790;0.298;2023-04-15T10:33:31;9.77;;;4.57;;
22614;SDS011;11474;50.790;0.298;2023-04-15T10:35:58;11.52;;;4.78;;
22614;SDS011;11474;50.790;0.298;2023-04-15T10:38:40;10.02;;;4.70;;
22614;SDS011;11474;50.790;0.298;2023-04-15T10:41:19;10.07;;;5.05;;
22614;SDS011;11474;50.790;0.298;2023-04-15T10:46:21;9.85;;;4.90;;
22614;SDS011;11474;50.790;0.298;2023-04-15T10:48:52;12.48;;;4.78;;
22614;SDS011;11474;50.790;0.298;2023-04-15T10:51:28;9.30;;;4.40;;
22614;SDS011;11474;50.790;0.298;2023-04-15T10:53:58;11.38;;;4.68;;
22614;SDS011;11474;50.790;0.298;2023-04-15T10:56:24;11.55;;;4.88;;
22614;SDS011;11474;50.790;0.298;2023-04-15T10:58:50;11.95;;;4.93;;
22614;SDS011;11474;50.790;0.298;2023-04-15T11:01:18;8.53;;;4.40;;
22614;SDS011;11474;50.790;0.298;2023-04-15T11:03:44;9.77;;;4.47;;
22614;SDS011;11474;50.790;0.298;2023-04-15T11:06:11;13.90;;;4.78;;
22614;SDS011;11474;50.790;0.298;2023-04-15T11:08:56;11.57;;;4.32;;
22614;SDS011;11474;50.790;0.298;2023-04-15T11:11:50;12.50;;;4.80;;
22614;SDS011;11474;50.790;0.298;2023-04-15T11:14:13;10.38;;;4.57;;
22614;SDS011;11474;50.790;0.298;2023-04-15T11:16:42;12.80;;;4.60;;
22614;SDS011;11474;50.790;0.298;2023-04-15T11:19:11;11.80;;;4.45;;
22614;SDS011;11474;50.790;0.298;2023-04-15T11:21:37;11.82;;;4.68;;
22614;SDS011;11474;50.790;0.298;2023-04-15T11:24:03;10.75;;;3.85;;
22614;SDS011;11474;50.790;0.298;2023-04-15T11:26:29;10.32;;;4.15;;
22614;SDS011;11474;50.790;0.298;2023-04-15T11:28:56;7.75;;;3.38;;
22614;SDS011;11474;50.790;0.298;2023-04-15T11:31:25;10.97;;;3.70;;
22614;SDS011;11474;50.790;0.298;2023-04-15T11:33:56;10.90;;;3.83;;
22614;SDS011;11474;50.790;0.298;2023-04-15T11:36:26;8.05;;;3.40;;
22614;SDS011;11474;50.790;0.298;2023-04-15T11:38:53;12.25;;;4.28;;
22614;SDS011;11474;50.790;0.298;2023-04-15T11:41:20;7.28;;;3.75;;
22614;SDS011;11474;50.790;0.298;2023-04-15T11:43:46;8.43;;;3.50;;
22614;SDS011;11474;50.790;0.298;2023-04-15T11:46:12;11.23;;;3.55;;
22614;SDS011;11474;50.790;0.298;2023-04-15T11:48:41;9.87;;;3.23;;
22614;SDS011;11474;50.790;0.298;2023-04-15T11:51:08;11.65;;;3.65;;
22614;SDS011;11474;50.790;0.298;2023-04-15T11:53:35;12.03;;;3.77;;
22614;SDS011;11474;50.790;0.298;2023-04-15T11:56:01;9.50;;;3.90;;
22614;SDS011;11474;50.790;0.298;2023-04-15T11:58:28;12.00;;;2.97;;
22614;SDS011;11474;50.790;0.298;2023-04-15T12:00:55;6.90;;;2.53;;
22614;SDS011;11474;50.790;0.298;2023-04-15T12:03:22;7.38;;;3.00;;
22614;SDS011;11474;50.790;0.298;2023-04-15T12:06:02;9.38;;;3.63;;
22614;SDS011;11474;50.790;0.298;2023-04-15T12:11:15;10.98;;;3.22;;
22614;SDS011;11474;50.790;0.298;2023-04-15T12:13:46;9.35;;;3.75;;
22614;SDS011;11474;50.790;0.298;2023-04-15T12:16:16;8.00;;;3.57;;
22614;SDS011;11474;50.790;0.298;2023-04-15T12:18:46;8.77;;;3.55;;
22614;SDS011;11474;50.790;0.298;2023-04-15T12:21:12;11.18;;;3.92;;
22614;SDS011;11474;50.790;0.298;2023-04-15T12:23:39;12.50;;;4.27;;
22614;SDS011;11474;50.790;0.298;2023-04-15T12:26:13;9.43;;;4.15;;
22614;SDS011;11474;50.790;0.298;2023-04-15T12:28:39;11.93;;;3.77;;
22614;SDS011;11474;50.790;0.298;2023-04-15T12:31:11;9.43;;;3.75;;
22614;SDS011;11474;50.790;0.298;2023-04-15T12:33:37;11.27;;;3.60;;
22614;SDS011;11474;50.790;0.298;2023-04-15T12:36:04;9.48;;;3.95;;
22614;SDS011;11474;50.790;0.298;2023-04-15T12:38:30;10.75;;;4.30;;
22614;SDS011;11474;50.790;0.298;2023-04-15T12:40:59;9.17;;;3.60;;
22614;SDS011;11474;50.790;0.298;2023-04-15T12:43:25;8.38;;;3.40;;
22614;SDS011;11474;50.790;0.298;2023-04-15T12:45:51;12.07;;;3.60;;
22614;SDS011;11474;50.790;0.298;2023-04-15T12:48:17;9.70;;;3.83;;
22614;SDS011;11474;50.790;0.298;2023-04-15T12:50:43;9.07;;;3.83;;
22614;SDS011;11474;50.790;0.298;2023-04-15T12:53:09;11.13;;;3.40;;
22614;SDS011;11474;50.790;0.298;2023-04-15T12:55:35;9.45;;;3.47;;
22614;SDS011;11474;50.790;0.298;2023-04-15T12:58:01;8.63;;;3.40;;
22614;SDS011;11474;50.790;0.298;2023-04-15T13:00:27;7.60;;;3.35;;
22614;SDS011;11474;50.790;0.298;2023-04-15T13:02:54;8.90;;;3.58;;
22614;SDS011;11474;50.790;0.298;2023-04-15T13:05:20;9.57;;;3.40;;
22614;SDS011;11474;50.790;0.298;2023-04-15T13:07:46;7.20;;;3.17;;
22614;SDS011;11474;50.790;0.298;2023-04-15T13:10:12;10.38;;;4.05;;
22614;SDS011;11474;50.790;0.298;2023-04-15T13:12:38;10.88;;;3.42;;
22614;SDS011;11474;50.790;0.298;2023-04-15T13:15:05;11.75;;;4.03;;
22614;SDS011;11474;50.790;0.298;2023-04-15T13:17:33;9.73;;;3.58;;
22614;SDS011;11474;50.790;0.298;2023-04-15T13:19:59;12.18;;;3.83;;
22614;SDS011;11474;50.790;0.298;2023-04-15T13:22:25;11.85;;;3.55;;
22614;SDS011;11474;50.790;0.298;2023-04-15T13:24:51;14.50;;;3.78;;
22614;SDS011;11474;50.790;0.298;2023-04-15T13:27:17;11.07;;;3.50;;
22614;SDS011;11474;50.790;0.298;2023-04-15T13:29:43;8.47;;;3.07;;
22614;SDS011;11474;50.790;0.298;2023-04-15T13:32:09;11.57;;;3.58;;
22614;SDS011;11474;50.790;0.298;2023-04-15T13:34:36;9.33;;;3.10;;
22614;SDS011;11474;50.790;0.298;2023-04-15T13:37:05;10.73;;;3.65;;
22614;SDS011;11474;50.790;0.298;2023-04-15T13:39:32;11.05;;;3.65;;
22614;SDS011;11474;50.790;0.298;2023-04-15T13:41:58;11.45;;;3.63;;
22614;SDS011;11474;50.790;0.298;2023-04-15T13:44:24;9.48;;;3.65;;
22614;SDS011;11474;50.790;0.298;2023-04-15T13:46:51;8.13;;;3.42;;
22614;SDS011;11474;50.790;0.298;2023-04-15T13:49:17;10.45;;;4.43;;
22614;SDS011;11474;50.790;0.298;2023-04-15T13:51:43;10.00;;;3.90;;
22614;SDS011;11474;50.790;0.298;2023-04-15T13:54:09;10.98;;;3.65;;
22614;SDS011;11474;50.790;0.298;2023-04-15T13:56:35;9.60;;;3.45;;
22614;SDS011;11474;50.790;0.298;2023-04-15T13:59:02;14.38;;;3.72;;
22614;SDS011;11474;50.790;0.298;2023-04-15T14:01:28;11.05;;;3.70;;
22614;SDS011;11474;50.790;0.298;2023-04-15T14:03:54;12.63;;;3.55;;
22614;SDS011;11474;50.790;0.298;2023-04-15T14:06:20;11.32;;;3.90;;
22614;SDS011;11474;50.790;0.298;2023-04-15T14:08:46;10.82;;;3.83;;
22614;SDS011;11474;50.790;0.298;2023-04-15T14:11:12;10.15;;;3.60;;
22614;SDS011;11474;50.790;0.298;2023-04-15T14:13:38;11.82;;;3.72;;
22614;SDS011;11474;50.790;0.298;2023-04-15T14:16:05;10.75;;;4.00;;
22614;SDS011;11474;50.790;0.298;2023-04-15T14:18:31;11.10;;;4.13;;
22614;SDS011;11474;50.790;0.298;2023-04-15T14:20:58;11.50;;;3.87;;
22614;SDS011;11474;50.790;0.298;2023-04-15T14:23:24;11.95;;;4.00;;
22614;SDS011;11474;50.790;0.298;2023-04-15T14:25:50;10.00;;;3.63;;
22614;SDS011;11474;50.790;0.298;2023-04-15T14:28:16;12.23;;;3.60;;
22614;SDS011;11474;50.790;0.298;2023-04-15T14:30:42;12.40;;;3.92;;
22614;SDS011;11474;50.790;0.298;2023-04-15T14:33:08;10.55;;;3.88;;
22614;SDS011;11474;50.790;0.298;2023-04-15T14:35:34;8.30;;;3.40;;
22614;SDS011;11474;50.790;0.298;2023-04-15T14:38:00;9.88;;;3.90;;
22614;SDS011;11474;50.790;0.298;2023-04-15T14:40:26;14.98;;;4.28;;
22614;SDS011;11474;50.790;0.298;2023-04-15T14:42:52;14.07;;;4.90;;
22614;SDS011;11474;50.790;0.298;2023-04-15T14:45:18;12.52;;;4.60;;